sensor_id;sensor_type;location;lat;lon;timestamp;pressure;altitude;pressure_sealevel;temperature;humidity
21276;BME280;36472;52.170;20.884;2023-04-01T00:01:27;98512.47;;;11.31;100.00
21276;BME280;36472;52.170;20.884;2023-04-01T00:03:56;98515.09;;;11.31;100.00
21276;BME280;36472;52.170;20.884;2023-04-01T00:06:25;98512.63;;;11.29;100.00
21276;BME280;36472;52.170;20.884;2023-04-01T00:08:54;98502.56;;;11.25;100.00
21276;BME280;36472;52.170;20.884;2023-04-01T00:11:23;98503.00;;;11.20;100.00
21276;BME280;36472;52.170;20.884;2023-04-01T00:13:54;98494.59;;;11.16;100.00
21276;BME280;36472;52.170;20.884;2023-04-01T00:16:23;98497.06;;;11.18;100.00
21276;BME280;36472;52.170;20.884;2023-04-01T00:18:53;98498.19;;;11.15;100.00
21276;BME280;36472;52.170;20.884;2023-04-01T00:21:22;98492.53;;;11.10;100.00
21276;BME280;36472;52.170;20.884;2023-04-01T00:23:51;98486.09;;;11.04;100.00
21276;BME280;36472;52.170;20.884;2023-04-01T00:26:21;98484.00;;;11.08;100.00
21276;BME280;36472;52.170;20.884;2023-04-01T00:28:50;98471.13;;;11.05;100.00
21276;BME280;36472;52.170;20.884;2023-04-01T00:31:19;98478.72;;;11.08;100.00
21276;BME280;36472;52.170;20.884;2023-04-01T00:33:48;98478.06;;;11.06;100.00
21276;BME280;36472;52.170;20.884;2023-04-01T00:36:21;98475.59;;;11.04;100.00
21276;BME280;36472;52.170;20.884;2023-04-01T00:38:51;98477.69;;;11.01;100.00
21276;BME280;36472;52.170;20.884;2023-04-01T00:41:20;98482.56;;;10.96;100.00
21276;BME280;36472;52.170;20.884;2023-04-01T00:43:51;98488.97;;;10.93;100.00
21276;BME280;36472;52.170;20.884;2023-04-01T00:46:20;98488.56;;;10.88;100.00
21276;BME280;36472;52.170;20.884;2023-04-01T00:48:54;98481.50;;;10.89;100.00
21276;BME280;36472;52.170;20.884;2023-04-01T00:51:29;98477.22;;;10.88;100.00
21276;BME280;36472;52.170;20.884;2023-04-01T00:54:00;98481.66;;;10.87;100.00
21276;BME280;36472;52.170;20.884;2023-04-01T00:56:35;98484.00;;;10.90;100.00
21276;BME280;36472;52.170;20.884;2023-04-01T00:59:11;98480.84;;;10.87;100.00
21276;BME280;36472;52.170;20.884;2023-04-01T01:01:43;98480.00;;;10.86;100.00
21276;BME280;36472;52.170;20.884;2023-04-01T01:04:23;98471.97;;;10.88;100.00
21276;BME280;36472;52.170;20.884;2023-04-01T01:07:08;98473.63;;;10.89;100.00
21276;BME280;36472;52.170;20.884;2023-04-01T01:09:49;98472.81;;;10.88;100.00
21276;BME280;36472;52.170;20.884;2023-04-01T01:12:26;98469.34;;;10.88;100.00
21276;BME280;36472;52.170;20.884;2023-04-01T01:15:08;98476.63;;;10.94;100.00
21276;BME280;36472;52.170;20.884;2023-04-01T01:17:49;98478.13;;;10.96;100.00
21276;BME280;36472;52.170;20.884;2023-04-01T01:20:52;98468.75;;;10.94;100.00
21276;BME280;36472;52.170;20.884;2023-04-01T01:24:17;98475.50;;;10.96;100.00
21276;BME280;36472;52.170;20.884;2023-04-01T01:27:02;98482.94;;;11.01;100.00
21276;BME280;36472;52.170;20.884;2023-04-01T01:30:02;98477.47;;;10.94;100.00
21276;BME280;36472;52.170;20.884;2023-04-01T01:36:04;98483.38;;;10.96;100.00
21276;BME280;36472;52.170;20.884;2023-04-01T01:38:35;98480.75;;;10.96;100.00
21276;BME280;36472;52.170;20.884;2023-04-01T01:41:08;98484.38;;;10.95;100.00
21276;BME280;36472;52.170;20.884;2023-04-01T01:43:43;98486.53;;;11.00;100.00
21276;BME280;36472;52.170;20.884;2023-04-01T01:46:19;98487.38;;;11.00;100.00
21276;BME280;36472;52.170;20.884;2023-04-01T01:48:50;98491.66;;;11.01;100.00
21276;BME280;36472;52.170;20.884;2023-04-01T01:51:22;98487.91;;;11.04;100.00
21276;BME280;36472;52.170;20.884;2023-04-01T01:53:52;98488.19;;;11.01;100.00
21276;BME280;36472;52.170;20.884;2023-04-01T01:56:26;98483.63;;;11.03;100.00
21276;BME280;36472;52.170;20.884;2023-04-01T01:59:02;98484.97;;;11.07;100.00
21276;BME280;36472;52.170;20.884;2023-04-01T02:01:37;98480.53;;;11.08;100.00
21276;BME280;36472;52.170;20.884;2023-04-01T02:04:14;98477.09;;;11.07;100.00
21276;BME280;36472;52.170;20.884;2023-04-01T02:06:53;98479.72;;;11.07;100.00
21276;BME280;36472;52.170;20.884;2023-04-01T02:09:24;98476.78;;;11.10;100.00
21276;BME280;36472;52.170;20.884;2023-04-01T02:11:58;98466.88;;;11.04;100.00
21276;BME280;36472;52.170;20.884;2023-04-01T02:14:39;98467.84;;;11.03;100.00
21276;BME280;36472;52.170;20.884;2023-04-01T02:17:14;98466.88;;;11.04;100.00
21276;BME280;36472;52.170;20.884;2023-04-01T02:19:52;98464.69;;;10.99;100.00
21276;BME280;36472;52.170;20.884;2023-04-01T02:22:29;98466.34;;;11.00;100.00
21276;BME280;36472;52.170;20.884;2023-04-01T02:25:04;98460.56;;;10.97;100.00
21276;BME280;36472;52.170;20.884;2023-04-01T02:27:35;98458.25;;;10.94;100.00
21276;BME280;36472;52.170;20.884;2023-04-01T02:30:06;98456.28;;;10.96;100.00
21276;BME280;36472;52.170;20.884;2023-04-01T02:32:37;98447.34;;;10.89;100.00
21276;BME280;36472;52.170;20.884;2023-04-01T02:35:10;98446.81;;;10.85;100.00
21276;BME280;36472;52.170;20.884;2023-04-01T02:37:43;98446.31;;;10.81;100.00
21276;BME280;36472;52.170;20.884;2023-04-01T02:40:15;98449.06;;;10.80;100.00
21276;BME280;36472;52.170;20.884;2023-04-01T02:42:45;98445.78;;;10.78;100.00
21276;BME280;36472;52.170;20.884;2023-04-01T02:45:14;98446.59;;;10.78;100.00
21276;BME280;36472;52.170;20.884;2023-04-01T02:47:43;98454.19;;;10.81;100.00
21276;BME280;36472;52.170;20.884;2023-04-01T02:50:12;98449.22;;;10.78;100.00
21276;BME280;36472;52.170;20.884;2023-04-01T02:52:43;98457.94;;;10.79;100.00
21276;BME280;36472;52.170;20.884;2023-04-01T02:55:13;98459.59;;;10.80;100.00
21276;BME280;36472;52.170;20.884;2023-04-01T02:57:42;98452.66;;;10.79;100.00
21276;BME280;36472;52.170;20.884;2023-04-01T03:00:12;98461.84;;;10.75;100.00
21276;BME280;36472;52.170;20.884;2023-04-01T03:02:42;98461.84;;;10.75;100.00
21276;BME280;36472;52.170;20.884;2023-04-01T03:05:11;98466.25;;;10.74;100.00
21276;BME280;36472;52.170;20.884;2023-04-01T03:07:40;98469.72;;;10.75;100.00
21276;BME280;36472;52.170;20.884;2023-04-01T03:10:11;98470.69;;;10.74;100.00
21276;BME280;36472;52.170;20.884;2023-04-01T03:12:40;98469.03;;;10.73;100.00
21276;BME280;36472;52.170;20.884;2023-04-01T03:15:11;98477.88;;;10.72;100.00
21276;BME280;36472;52.170;20.884;2023-04-01T03:17:42;98474.06;;;10.66;100.00
21276;BME280;36472;52.170;20.884;2023-04-01T03:20:13;98474.06;;;10.66;100.00
21276;BME280;36472;52.170;20.884;2023-04-01T03:22:42;98477.50;;;10.66;100.00
21276;BME280;36472;52.170;20.884;2023-04-01T03:25:13;98470.44;;;10.67;100.00
21276;BME280;36472;52.170;20.884;2023-04-01T03:27:42;98472.09;;;10.68;100.00
21276;BME280;36472;52.170;20.884;2023-04-01T03:30:11;98479.16;;;10.68;100.00
21276;BME280;36472;52.170;20.884;2023-04-01T03:32:49;98480.66;;;10.70;100.00
21276;BME280;36472;52.170;20.884;2023-04-01T03:35:18;98476.38;;;10.69;100.00
21276;BME280;36472;52.170;20.884;2023-04-01T03:37:48;98476.06;;;10.72;100.00
21276;BME280;36472;52.170;20.884;2023-04-01T03:40:18;98481.72;;;10.77;100.00
21276;BME280;36472;52.170;20.884;2023-04-01T03:42:48;98484.19;;;10.79;100.00
21276;BME280;36472;52.170;20.884;2023-04-01T03:45:17;98491.41;;;10.77;100.00
21276;BME280;36472;52.170;20.884;2023-04-01T03:47:46;98487.97;;;10.76;100.00
21276;BME280;36472;52.170;20.884;2023-04-01T03:50:16;98492.22;;;10.77;100.00
21276;BME280;36472;52.170;20.884;2023-04-01T03:52:45;98493.06;;;10.78;100.00
21276;BME280;36472;52.170;20.884;2023-04-01T03:55:14;98502.44;;;10.80;100.00
21276;BME280;36472;52.170;20.884;2023-04-01T03:57:45;98497.19;;;10.80;100.00
21276;BME280;36472;52.170;20.884;2023-04-01T04:00:18;98499.97;;;10.79;100.00
21276;BME280;36472;52.170;20.884;2023-04-01T04:02:53;98501.78;;;10.78;100.00
21276;BME280;36472;52.170;20.884;2023-04-01T04:05:29;98509.28;;;10.73;100.00
21276;BME280;36472;52.170;20.884;2023-04-01T04:07:59;98509.28;;;10.73;100.00
21276;BME280;36472;52.170;20.884;2023-04-01T04:10:28;98519.91;;;10.72;100.00
21276;BME280;36472;52.170;20.884;2023-04-01T04:12:59;98509.28;;;10.73;100.00
21276;BME280;36472;52.170;20.884;2023-04-01T04:15:30;98514.81;;;10.70;100.00
21276;BME280;36472;52.170;20.884;2023-04-01T04:17:59;98520.75;;;10.72;100.00
21276;BME280;36472;52.170;20.884;2023-04-01T04:20:28;98518.50;;;10.77;100.00
21276;BME280;36472;52.170;20.884;2023-04-01T04:22:58;98520.44;;;10.75;100.00
21276;BME280;36472;52.170;20.884;2023-04-01T04:25:28;98527.38;;;10.76;100.00
21276;BME280;36472;52.170;20.884;2023-04-01T04:27:59;98526.22;;;10.79;100.00
21276;BME280;36472;52.170;20.884;2023-04-01T04:30:28;98539.22;;;10.80;100.00
21276;BME280;36472;52.170;20.884;2023-04-01T04:32:57;98528.44;;;10.83;100.00
21276;BME280;36472;52.170;20.884;2023-04-01T04:35:27;98530.06;;;10.84;100.00
21276;BME280;36472;52.170;20.884;2023-04-01T04:37:57;98523.47;;;10.80;100.00
21276;BME280;36472;52.170;20.884;2023-04-01T04:40:26;98537.28;;;10.82;100.00
21276;BME280;36472;52.170;20.884;2023-04-01T04:42:55;98528.44;;;10.83;100.00
21276;BME280;36472;52.170;20.884;2023-04-01T04:45:25;98528.97;;;10.87;100.00
21276;BME280;36472;52.170;20.884;2023-04-01T04:47:56;98524.53;;;10.88;100.00
21276;BME280;36472;52.170;20.884;2023-04-01T04:50:25;98529.25;;;10.84;100.00
21276;BME280;36472;52.170;20.884;2023-04-01T04:52:55;98532.03;;;10.82;100.00
21276;BME280;36472;52.170;20.884;2023-04-01T04:55:24;98527.91;;;10.80;100.00
21276;BME280;36472;52.170;20.884;2023-04-01T04:58:13;98536.34;;;10.74;100.00
21276;BME280;36472;52.170;20.884;2023-04-01T05:00:46;98545.75;;;10.76;100.00
21276;BME280;36472;52.170;20.884;2023-04-01T05:03:26;98538.97;;;10.74;100.00
21276;BME280;36472;52.170;20.884;2023-04-01T05:05:55;98540.78;;;10.73;100.00
21276;BME280;36472;52.170;20.884;2023-04-01T05:08:24;98536.13;;;10.67;100.00
21276;BME280;36472;52.170;20.884;2023-04-01T05:10:53;98541.09;;;10.70;100.00
21276;BME280;36472;52.170;20.884;2023-04-01T05:13:22;98540.41;;;10.68;100.00
21276;BME280;36472;52.170;20.884;2023-04-01T05:15:55;98540.25;;;10.70;100.00
21276;BME280;36472;52.170;20.884;2023-04-01T05:18:24;98546.88;;;10.74;100.00
21276;BME280;36472;52.170;20.884;2023-04-01T05:20:55;98548.31;;;10.86;100.00
21276;BME280;36472;52.170;20.884;2023-04-01T05:23:24;98545.41;;;10.89;100.00
21276;BME280;36472;52.170;20.884;2023-04-01T05:25:53;98543.00;;;10.96;100.00
21276;BME280;36472;52.170;20.884;2023-04-01T05:28:22;98546.69;;;11.03;100.00
21276;BME280;36472;52.170;20.884;2023-04-01T05:30:53;98545.72;;;11.04;100.00
21276;BME280;36472;52.170;20.884;2023-04-01T05:33:25;98543.25;;;11.02;100.00
21276;BME280;36472;52.170;20.884;2023-04-01T05:35:54;98542.44;;;11.02;100.00
21276;BME280;36472;52.170;20.884;2023-04-01T05:38:23;98540.53;;;10.94;100.00
21276;BME280;36472;52.170;20.884;2023-04-01T05:40:59;98542.88;;;10.97;100.00
21276;BME280;36472;52.170;20.884;2023-04-01T05:43:29;98542.56;;;11.00;100.00
21276;BME280;36472;52.170;20.884;2023-04-01T05:46:06;98542.44;;;11.02;100.00
21276;BME280;36472;52.170;20.884;2023-04-01T05:48:41;98548.25;;;10.96;100.00
21276;BME280;36472;52.170;20.884;2023-04-01T05:51:13;98550.75;;;10.97;100.00
21276;BME280;36472;52.170;20.884;2023-04-01T05:53:42;98545.78;;;10.94;100.00
21276;BME280;36472;52.170;20.884;2023-04-01T05:56:12;98556.44;;;10.93;100.00
21276;BME280;36472;52.170;20.884;2023-04-01T05:58:52;98544.91;;;11.03;100.00
21276;BME280;36472;52.170;20.884;2023-04-01T06:01:24;98553.72;;;11.12;100.00
21276;BME280;36472;52.170;20.884;2023-04-01T06:03:54;98554.00;;;11.09;100.00
21276;BME280;36472;52.170;20.884;2023-04-01T06:06:28;98554.22;;;11.16;100.00
21276;BME280;36472;52.170;20.884;2023-04-01T06:09:14;98554.75;;;11.19;100.00
21276;BME280;36472;52.170;20.884;2023-04-01T06:12:28;98556.34;;;11.30;100.00
21276;BME280;36472;52.170;20.884;2023-04-01T06:15:19;98554.06;;;11.35;100.00
21276;BME280;36472;52.170;20.884;2023-04-01T06:21:27;98564.31;;;11.38;100.00
21276;BME280;36472;52.170;20.884;2023-04-01T06:24:24;98566.50;;;11.43;100.00
21276;BME280;36472;52.170;20.884;2023-04-01T06:27:07;98558.31;;;11.46;100.00
21276;BME280;36472;52.170;20.884;2023-04-01T06:29:58;98563.25;;;11.49;100.00
21276;BME280;36472;52.170;20.884;2023-04-01T06:32:58;98567.00;;;11.47;100.00
21276;BME280;36472;52.170;20.884;2023-04-01T06:35:48;98573.09;;;11.47;100.00
21276;BME280;36472;52.170;20.884;2023-04-01T06:39:07;98561.75;;;11.47;99.85
21276;BME280;36472;52.170;20.884;2023-04-01T06:42:14;98572.56;;;11.44;100.00
21276;BME280;36472;52.170;20.884;2023-04-01T06:44:59;98571.47;;;11.46;100.00
21276;BME280;36472;52.170;20.884;2023-04-01T06:48:16;98576.88;;;11.45;100.00
21276;BME280;36472;52.170;20.884;2023-04-01T06:51:19;98575.56;;;11.49;100.00
21276;BME280;36472;52.170;20.884;2023-04-01T06:54:17;98572.34;;;11.55;99.54
21276;BME280;36472;52.170;20.884;2023-04-01T06:57:20;98572.44;;;11.45;99.40
21276;BME280;36472;52.170;20.884;2023-04-01T06:59:55;98570.31;;;11.49;99.89
21276;BME280;36472;52.170;20.884;2023-04-01T07:02:36;98577.09;;;11.51;99.15
21276;BME280;36472;52.170;20.884;2023-04-01T07:05:11;98579.88;;;11.50;98.83
21276;BME280;36472;52.170;20.884;2023-04-01T07:07:46;98581.97;;;11.46;99.61
21276;BME280;36472;52.170;20.884;2023-04-01T07:10:23;98581.28;;;11.44;99.88
21276;BME280;36472;52.170;20.884;2023-04-01T07:13:24;98577.84;;;11.44;99.44
21276;BME280;36472;52.170;20.884;2023-04-01T07:16:11;98579.28;;;11.38;98.84
21276;BME280;36472;52.170;20.884;2023-04-01T07:18:48;98584.69;;;11.36;99.17
21276;BME280;36472;52.170;20.884;2023-04-01T07:21:29;98575.97;;;11.36;99.21
21276;BME280;36472;52.170;20.884;2023-04-01T07:24:16;98575.41;;;11.32;99.25
21276;BME280;36472;52.170;20.884;2023-04-01T07:26:57;98561.81;;;11.37;99.80
21276;BME280;36472;52.170;20.884;2023-04-01T07:29:31;98575.00;;;11.55;99.71
21276;BME280;36472;52.170;20.884;2023-04-01T07:32:24;98578.00;;;11.60;99.93
21276;BME280;36472;52.170;20.884;2023-04-01T07:35:19;98573.91;;;11.66;99.46
21276;BME280;36472;52.170;20.884;2023-04-01T07:38:11;98579.56;;;11.71;99.86
21276;BME280;36472;52.170;20.884;2023-04-01T07:40:52;98573.69;;;11.77;100.00
21276;BME280;36472;52.170;20.884;2023-04-01T07:43:45;98582.63;;;11.84;100.00
21276;BME280;36472;52.170;20.884;2023-04-01T07:46:49;98586.22;;;11.83;99.13
21276;BME280;36472;52.170;20.884;2023-04-01T07:49:32;98578.63;;;11.80;98.90
21276;BME280;36472;52.170;20.884;2023-04-01T07:52:15;98579.25;;;11.74;99.30
21276;BME280;36472;52.170;20.884;2023-04-01T07:55:00;98584.81;;;11.71;99.12
21276;BME280;36472;52.170;20.884;2023-04-01T07:57:41;98586.16;;;11.75;99.54
21276;BME280;36472;52.170;20.884;2023-04-01T08:00:20;98587.31;;;11.72;99.39
21276;BME280;36472;52.170;20.884;2023-04-01T08:03:31;98585.19;;;11.76;99.24
21276;BME280;36472;52.170;20.884;2023-04-01T08:06:15;98587.88;;;11.84;100.00
21276;BME280;36472;52.170;20.884;2023-04-01T08:08:58;98582.41;;;11.95;100.00
21276;BME280;36472;52.170;20.884;2023-04-01T08:11:51;98594.22;;;11.91;99.69
21276;BME280;36472;52.170;20.884;2023-04-01T08:14:58;98597.88;;;11.98;99.26
21276;BME280;36472;52.170;20.884;2023-04-01T08:18:06;98589.31;;;11.96;99.32
21276;BME280;36472;52.170;20.884;2023-04-01T08:20:45;98596.78;;;12.01;99.01
21276;BME280;36472;52.170;20.884;2023-04-01T08:23:19;98595.88;;;11.92;98.45
21276;BME280;36472;52.170;20.884;2023-04-01T08:25:56;98598.41;;;11.84;97.46
21276;BME280;36472;52.170;20.884;2023-04-01T08:28:38;98607.13;;;11.85;97.05
21276;BME280;36472;52.170;20.884;2023-04-01T08:31:17;98600.91;;;11.86;97.13
21276;BME280;36472;52.170;20.884;2023-04-01T08:33:49;98609.25;;;11.81;96.74
21276;BME280;36472;52.170;20.884;2023-04-01T08:36:29;98608.06;;;11.75;95.93
21276;BME280;36472;52.170;20.884;2023-04-01T08:39:18;98608.28;;;11.64;95.98
21276;BME280;36472;52.170;20.884;2023-04-01T08:42:26;98606.09;;;11.59;96.66
21276;BME280;36472;52.170;20.884;2023-04-01T08:45:21;98613.09;;;11.69;95.73
21276;BME280;36472;52.170;20.884;2023-04-01T08:48:55;98607.44;;;11.64;95.43
21276;BME280;36472;52.170;20.884;2023-04-01T08:52:16;98613.47;;;11.74;95.44
21276;BME280;36472;52.170;20.884;2023-04-01T08:55:25;98614.34;;;11.83;95.34
21276;BME280;36472;52.170;20.884;2023-04-01T08:58:59;98615.25;;;11.73;95.21
21276;BME280;36472;52.170;20.884;2023-04-01T09:02:35;98619.41;;;11.76;94.77
21276;BME280;36472;52.170;20.884;2023-04-01T09:06:01;98616.63;;;11.77;95.02
21276;BME280;36472;52.170;20.884;2023-04-01T09:08:54;98603.09;;;11.72;95.35
21276;BME280;36472;52.170;20.884;2023-04-01T09:11:49;98622.91;;;11.85;95.01
21276;BME280;36472;52.170;20.884;2023-04-01T09:15:03;98627.66;;;11.81;95.22
21276;BME280;36472;52.170;20.884;2023-04-01T09:21:17;98627.22;;;11.68;94.09
21276;BME280;36472;52.170;20.884;2023-04-01T09:27:20;98633.00;;;11.53;92.70
21276;BME280;36472;52.170;20.884;2023-04-01T09:37:20;98634.25;;;11.49;94.72
21276;BME280;36472;52.170;20.884;2023-04-01T09:40:16;98634.50;;;11.56;95.14
21276;BME280;36472;52.170;20.884;2023-04-01T09:43:21;98634.25;;;11.49;94.89
21276;BME280;36472;52.170;20.884;2023-04-01T09:46:15;98627.38;;;11.48;95.18
21276;BME280;36472;52.170;20.884;2023-04-01T09:52:19;98633.84;;;11.72;96.60
21276;BME280;36472;52.170;20.884;2023-04-01T09:55:13;98624.97;;;11.73;95.91
21276;BME280;36472;52.170;20.884;2023-04-01T09:58:28;98638.50;;;11.78;95.28
21276;BME280;36472;52.170;20.884;2023-04-01T10:02:18;98636.84;;;11.77;94.00
21276;BME280;36472;52.170;20.884;2023-04-01T10:05:34;98645.91;;;11.65;94.51
21276;BME280;36472;52.170;20.884;2023-04-01T10:12:28;98649.69;;;11.80;94.19
21276;BME280;36472;52.170;20.884;2023-04-01T10:15:33;98654.75;;;11.91;92.09
21276;BME280;36472;52.170;20.884;2023-04-01T10:22:17;98654.63;;;11.93;91.26
21276;BME280;36472;52.170;20.884;2023-04-01T10:25:27;98653.78;;;11.92;92.24
21276;BME280;36472;52.170;20.884;2023-04-01T10:43:19;98657.00;;;11.86;93.66
21276;BME280;36472;52.170;20.884;2023-04-01T10:47:00;98657.75;;;11.96;93.45
21276;BME280;36472;52.170;20.884;2023-04-01T10:50:16;98647.38;;;12.13;93.79
21276;BME280;36472;52.170;20.884;2023-04-01T10:53:35;98653.38;;;12.23;91.00
21276;BME280;36472;52.170;20.884;2023-04-01T10:56:39;98655.38;;;12.29;90.02
21276;BME280;36472;52.170;20.884;2023-04-01T11:00:18;98654.31;;;12.40;90.61
21276;BME280;36472;52.170;20.884;2023-04-01T11:07:51;98657.00;;;12.48;89.65
21276;BME280;36472;52.170;20.884;2023-04-01T11:14:38;98660.91;;;12.70;89.74
21276;BME280;36472;52.170;20.884;2023-04-01T11:23:53;98660.25;;;12.68;90.86
21276;BME280;36472;52.170;20.884;2023-04-01T11:26:52;98672.03;;;12.56;90.38
21276;BME280;36472;52.170;20.884;2023-04-01T11:30:04;98662.41;;;12.47;92.11
21276;BME280;36472;52.170;20.884;2023-04-01T11:32:54;98661.97;;;12.51;93.93
21276;BME280;36472;52.170;20.884;2023-04-01T11:36:01;98665.16;;;12.63;94.25
21276;BME280;36472;52.170;20.884;2023-04-01T11:39:11;98654.31;;;12.66;92.89
21276;BME280;36472;52.170;20.884;2023-04-01T11:42:24;98651.94;;;12.55;92.20
21276;BME280;36472;52.170;20.884;2023-04-01T11:45:35;98653.81;;;12.63;93.87
21276;BME280;36472;52.170;20.884;2023-04-01T11:48:32;98662.84;;;12.60;93.89
21276;BME280;36472;52.170;20.884;2023-04-01T11:51:32;98660.69;;;12.56;93.33
21276;BME280;36472;52.170;20.884;2023-04-01T11:54:25;98667.00;;;12.45;92.22
21276;BME280;36472;52.170;20.884;2023-04-01T11:57:31;98664.94;;;12.30;88.45
21276;BME280;36472;52.170;20.884;2023-04-01T12:00:25;98661.28;;;12.23;90.45
21276;BME280;36472;52.170;20.884;2023-04-01T12:03:26;98665.09;;;12.29;92.59
21276;BME280;36472;52.170;20.884;2023-04-01T12:06:05;98662.38;;;12.39;91.73
21276;BME280;36472;52.170;20.884;2023-04-01T12:08:50;98664.16;;;12.38;89.44
21276;BME280;36472;52.170;20.884;2023-04-01T12:11:29;98673.72;;;12.39;89.53
21276;BME280;36472;52.170;20.884;2023-04-01T12:14:13;98662.41;;;12.47;88.09
21276;BME280;36472;52.170;20.884;2023-04-01T12:17:06;98675.66;;;12.55;88.54
21276;BME280;36472;52.170;20.884;2023-04-01T12:19:48;98664.66;;;12.60;87.21
21276;BME280;36472;52.170;20.884;2023-04-01T12:22:44;98675.16;;;12.78;86.94
21276;BME280;36472;52.170;20.884;2023-04-01T12:25:40;98677.84;;;12.94;85.53
21276;BME280;36472;52.170;20.884;2023-04-01T12:28:25;98667.06;;;13.14;85.12
21276;BME280;36472;52.170;20.884;2023-04-01T12:31:18;98670.16;;;13.43;83.47
21276;BME280;36472;52.170;20.884;2023-04-01T12:34:24;98676.50;;;13.75;83.71
21276;BME280;36472;52.170;20.884;2023-04-01T12:37:11;98678.53;;;14.06;81.67
21276;BME280;36472;52.170;20.884;2023-04-01T12:39:59;98684.47;;;14.25;77.45
21276;BME280;36472;52.170;20.884;2023-04-01T12:42:53;98678.50;;;14.22;75.10
21276;BME280;36472;52.170;20.884;2023-04-01T12:45:31;98681.16;;;14.31;75.72
21276;BME280;36472;52.170;20.884;2023-04-01T12:48:28;98680.81;;;14.26;75.74
21276;BME280;36472;52.170;20.884;2023-04-01T12:51:33;98676.03;;;14.29;75.49
21276;BME280;36472;52.170;20.884;2023-04-01T12:58:04;98685.75;;;14.53;75.17
21276;BME280;36472;52.170;20.884;2023-04-01T13:01:00;98676.03;;;14.62;74.89
21276;BME280;36472;52.170;20.884;2023-04-01T13:04:03;98679.31;;;14.56;71.56
21276;BME280;36472;52.170;20.884;2023-04-01T13:07:16;98682.13;;;14.38;73.02
21276;BME280;36472;52.170;20.884;2023-04-01T13:09:57;98684.13;;;14.44;74.81
21276;BME280;36472;52.170;20.884;2023-04-01T13:12:50;98679.31;;;14.39;74.23
21276;BME280;36472;52.170;20.884;2023-04-01T13:15:33;98681.31;;;14.37;73.10
21276;BME280;36472;52.170;20.884;2023-04-01T13:18:20;98684.78;;;14.46;73.36
21276;BME280;36472;52.170;20.884;2023-04-01T13:21:00;98685.47;;;14.40;74.85
21276;BME280;36472;52.170;20.884;2023-04-01T13:23:53;98697.00;;;14.31;74.37
21276;BME280;36472;52.170;20.884;2023-04-01T13:26:34;98696.84;;;14.08;75.77
21276;BME280;36472;52.170;20.884;2023-04-01T13:29:14;98709.06;;;13.92;77.82
21276;BME280;36472;52.170;20.884;2023-04-01T13:32:02;98714.06;;;13.61;79.61
21276;BME280;36472;52.170;20.884;2023-04-01T13:34:53;98714.97;;;13.35;83.05
21276;BME280;36472;52.170;20.884;2023-04-01T13:37:46;98709.78;;;13.17;85.00
21276;BME280;36472;52.170;20.884;2023-04-01T13:40:34;98707.41;;;13.06;86.32
21276;BME280;36472;52.170;20.884;2023-04-01T13:43:19;98716.84;;;13.17;86.72
21276;BME280;36472;52.170;20.884;2023-04-01T13:46:12;98722.16;;;13.25;86.47
21276;BME280;36472;52.170;20.884;2023-04-01T13:49:23;98720.59;;;13.40;86.71
21276;BME280;36472;52.170;20.884;2023-04-01T13:52:23;98723.81;;;13.60;85.16
21276;BME280;36472;52.170;20.884;2023-04-01T13:55:38;98731.25;;;13.65;82.96
21276;BME280;36472;52.170;20.884;2023-04-01T13:58:42;98727.78;;;13.56;81.39
21276;BME280;36472;52.170;20.884;2023-04-01T14:01:23;98731.69;;;13.52;81.88
21276;BME280;36472;52.170;20.884;2023-04-01T14:07:41;98739.88;;;13.06;84.10
21276;BME280;36472;52.170;20.884;2023-04-01T14:10:25;98747.34;;;12.85;85.75
21276;BME280;36472;52.170;20.884;2023-04-01T14:13:05;98747.22;;;12.68;87.00
21276;BME280;36472;52.170;20.884;2023-04-01T14:16:20;98751.31;;;12.45;88.69
21276;BME280;36472;52.170;20.884;2023-04-01T14:19:11;98752.31;;;12.26;90.86
21276;BME280;36472;52.170;20.884;2023-04-01T14:21:50;98752.75;;;12.21;91.61
21276;BME280;36472;52.170;20.884;2023-04-01T14:24:45;98752.25;;;12.00;94.27
21276;BME280;36472;52.170;20.884;2023-04-01T14:27:40;98752.91;;;12.02;95.22
21276;BME280;36472;52.170;20.884;2023-04-01T14:30:45;98759.63;;;11.96;95.10
21276;BME280;36472;52.170;20.884;2023-04-01T14:33:35;98764.41;;;12.01;95.83
21276;BME280;36472;52.170;20.884;2023-04-01T14:36:34;98775.78;;;12.01;95.86
21276;BME280;36472;52.170;20.884;2023-04-01T14:39:26;98766.41;;;12.16;95.94
21276;BME280;36472;52.170;20.884;2023-04-01T14:42:21;98775.94;;;12.18;95.45
21276;BME280;36472;52.170;20.884;2023-04-01T14:45:26;98783.00;;;12.17;95.61
21276;BME280;36472;52.170;20.884;2023-04-01T14:48:21;98781.19;;;12.18;93.59
21276;BME280;36472;52.170;20.884;2023-04-01T14:51:01;98796.72;;;12.03;93.05
21276;BME280;36472;52.170;20.884;2023-04-01T14:53:37;98796.00;;;12.01;91.06
21276;BME280;36472;52.170;20.884;2023-04-01T14:56:09;98799.13;;;11.86;90.69
21276;BME280;36472;52.170;20.884;2023-04-01T14:58:45;98804.97;;;11.80;92.13
21276;BME280;36472;52.170;20.884;2023-04-01T15:01:33;98811.47;;;11.86;91.51
21276;BME280;36472;52.170;20.884;2023-04-01T15:04:46;98819.94;;;11.79;91.70
21276;BME280;36472;52.170;20.884;2023-04-01T15:07:46;98814.56;;;11.71;91.10
21276;BME280;36472;52.170;20.884;2023-04-01T15:10:43;98827.47;;;11.65;92.10
21276;BME280;36472;52.170;20.884;2023-04-01T15:13:33;98830.63;;;11.68;92.59
21276;BME280;36472;52.170;20.884;2023-04-01T15:16:19;98827.19;;;11.68;93.61
21276;BME280;36472;52.170;20.884;2023-04-01T15:19:07;98834.53;;;11.64;93.28
21276;BME280;36472;52.170;20.884;2023-04-01T15:22:15;98829.41;;;11.63;92.41
21276;BME280;36472;52.170;20.884;2023-04-01T15:25:03;98839.56;;;11.57;92.47